createdAt,value
2023-04-26T00:04:16.812Z,83.50
2023-04-26T01:11:11.994Z,83.40
2023-04-26T01:17:14.085Z,83.50
2023-04-26T03:09:56.516Z,83.50
2023-04-26T03:31:26.390Z,83.30
2023-04-26T03:34:42.086Z,83.30
2023-04-26T03:41:08.792Z,83.40
2023-04-26T03:43:58.677Z,83.40
2023-04-26T04:09:17.307Z,83.00
2023-04-26T04:13:33.474Z,83.30
2023-04-26T06:31:43.219Z,83.10
2023-04-26T06:34:16.976Z,83.10
2023-04-26T06:36:44.078Z,83.10
2023-04-26T06:39:11.450Z,83.10
2023-04-26T06:41:39.828Z,83.20
2023-04-26T06:44:06.791Z,83.90
2023-04-26T06:46:33.637Z,83.10
2023-04-26T06:49:01.708Z,83.10
2023-04-26T06:51:29.746Z,83.10
2023-04-26T06:53:59.041Z,83.10
2023-04-26T06:56:26.126Z,83.10
2023-04-26T06:59:00.943Z,83.00
2023-04-26T07:01:29.404Z,83.10
2023-04-26T07:03:57.989Z,83.20
2023-04-26T07:06:26.311Z,83.10
2023-04-26T07:08:53.587Z,83.10
2023-04-26T07:11:25.918Z,83.10
2023-04-26T07:13:53.837Z,83.10
2023-04-26T07:16:21.095Z,83.00
2023-04-26T07:18:52.911Z,83.10
2023-04-26T07:21:19.856Z,83.20
2023-04-26T07:23:46.792Z,83.30
2023-04-26T07:26:13.669Z,83.10
2023-04-26T07:28:40.718Z,83.10
2023-04-26T07:31:09.653Z,83.00
2023-04-26T07:33:38.318Z,83.00
2023-04-26T07:36:05.693Z,82.90
2023-04-26T07:38:33.815Z,82.90
2023-04-26T07:41:04.667Z,82.80
2023-04-26T07:43:31.545Z,82.90
2023-04-26T07:46:05.041Z,82.90
2023-04-26T07:55:54.070Z,83.00
2023-04-26T07:58:21.707Z,83.00
2023-04-26T08:00:48.786Z,83.00
2023-04-26T08:03:18.171Z,83.00
2023-04-26T08:05:45.712Z,83.00
2023-04-26T08:08:12.771Z,82.90
2023-04-26T08:10:42.860Z,82.80
2023-04-26T08:13:12.296Z,82.60
2023-04-26T08:15:40.934Z,82.30
2023-04-26T08:18:08.225Z,82.00
2023-04-26T08:20:35.209Z,81.80
2023-04-26T08:23:02.312Z,81.70
2023-04-26T08:25:29.387Z,81.60
2023-04-26T08:27:56.408Z,81.50
2023-04-26T08:30:23.847Z,81.30
2023-04-26T08:32:50.968Z,81.30
2023-04-26T08:35:18.029Z,81.10
2023-04-26T08:37:45.080Z,81.00
2023-04-26T08:40:12.061Z,80.90
2023-04-26T08:42:41.409Z,81.00
2023-04-26T08:45:08.626Z,81.00
2023-04-26T08:47:39.910Z,80.90
2023-04-26T08:50:08.452Z,80.70
2023-04-26T08:52:35.449Z,80.50
2023-04-26T08:55:04.013Z,80.50
2023-04-26T08:57:31.649Z,80.60
2023-04-26T08:59:58.643Z,80.70
2023-04-26T09:02:25.787Z,80.70
2023-04-26T09:04:53.243Z,80.70
2023-04-26T09:07:34.045Z,80.60
2023-04-26T09:10:03.808Z,80.70
2023-04-26T09:12:30.693Z,80.60
2023-04-26T09:14:57.885Z,80.70
2023-04-26T09:17:32.225Z,80.60
2023-04-26T09:19:59.883Z,80.80
2023-04-26T09:22:37.762Z,80.80
2023-04-26T09:25:05.540Z,80.90
2023-04-26T09:27:36.821Z,80.70
2023-04-26T09:30:06.041Z,80.80
2023-04-26T09:32:46.683Z,81.50
2023-04-26T09:35:24.958Z,80.90
2023-04-26T09:37:59.381Z,80.90
2023-04-26T09:40:30.888Z,80.80
2023-04-26T09:43:35.435Z,80.80
2023-04-26T09:46:02.983Z,80.90
2023-04-26T09:48:37.822Z,81.20
2023-04-26T09:59:13.486Z,81.00
2023-04-26T10:01:40.628Z,81.00
2023-04-26T10:04:07.868Z,81.00
2023-04-26T10:06:35.018Z,81.20
2023-04-26T10:09:02.320Z,81.10
2023-04-26T10:11:29.702Z,81.20
2023-04-26T10:13:56.716Z,81.20
2023-04-26T10:16:23.812Z,81.10
2023-04-26T10:18:51.493Z,81.20
2023-04-26T10:21:22.999Z,81.30
2023-04-26T10:23:50.587Z,81.30
2023-04-26T10:26:36.399Z,81.20
2023-04-26T10:29:04.165Z,81.20
2023-04-26T10:31:50.079Z,81.10
2023-04-26T10:34:23.418Z,81.20
2023-04-26T10:37:13.693Z,81.20
2023-04-26T10:39:41.739Z,81.20
2023-04-26T10:42:29.534Z,81.20
2023-04-26T10:45:50.123Z,81.20
2023-04-26T10:56:30.883Z,81.30
2023-04-26T10:59:33.208Z,81.20
2023-04-26T11:02:00.967Z,81.20
2023-04-26T11:04:53.930Z,81.10
2023-04-26T11:07:47.108Z,81.10
2023-04-26T11:10:29.978Z,81.20
2023-04-26T11:13:03.892Z,81.10
2023-04-26T11:16:05.341Z,81.10
2023-04-26T11:18:57.601Z,81.10
2023-04-26T11:21:34.438Z,81.00
2023-04-26T11:24:04.701Z,80.90
2023-04-26T11:26:44.758Z,81.00
2023-04-26T11:29:18.559Z,81.00
2023-04-26T11:57:17.530Z,81.10
2023-04-26T11:59:45.089Z,81.10
2023-04-26T12:09:49.124Z,81.10
2023-04-26T12:12:16.332Z,81.00
2023-04-26T12:24:37.806Z,81.10
2023-04-26T12:27:49.136Z,81.10
2023-04-26T12:30:16.302Z,81.10
2023-04-26T12:32:43.313Z,81.00
2023-04-26T12:35:10.593Z,80.90
2023-04-26T12:37:37.420Z,80.90
2023-04-26T12:40:04.711Z,80.80
2023-04-26T12:42:32.074Z,80.90
2023-04-26T12:44:59.263Z,80.80
2023-04-26T12:47:28.427Z,80.80
2023-04-26T12:49:55.293Z,80.70
2023-04-26T12:52:22.258Z,80.70
2023-04-26T12:54:49.161Z,80.80
2023-04-26T12:57:16.047Z,80.80
2023-04-26T12:59:42.881Z,80.80
2023-04-26T13:02:10.257Z,80.80
2023-04-26T13:04:40.792Z,80.80
2023-04-26T13:07:08.407Z,80.90
2023-04-26T13:09:35.371Z,80.70
2023-04-26T13:12:02.547Z,80.80
2023-04-26T13:14:29.807Z,80.80
2023-04-26T13:16:59.977Z,80.70
2023-04-26T13:19:26.944Z,80.90
2023-04-26T13:21:53.865Z,80.90
2023-04-26T13:24:20.991Z,80.80
2023-04-26T13:26:48.311Z,80.90
2023-04-26T13:29:15.233Z,80.80
2023-04-26T13:31:42.343Z,80.90
2023-04-26T13:34:09.880Z,80.90
2023-04-26T13:36:37.020Z,80.90
2023-04-26T13:39:05.237Z,80.90
2023-04-26T13:41:34.885Z,80.80
2023-04-26T13:44:05.005Z,80.80
2023-04-26T13:46:32.080Z,80.70
2023-04-26T13:49:43.131Z,80.60
2023-04-26T13:52:54.383Z,80.60
2023-04-26T13:55:21.449Z,80.50
2023-04-26T13:57:48.477Z,80.30
2023-04-26T14:00:15.691Z,80.30
2023-04-26T14:02:42.944Z,80.30
2023-04-26T14:05:10.406Z,80.20
2023-04-26T14:07:37.438Z,80.20
2023-04-26T14:10:04.526Z,80.10
2023-04-26T14:12:31.686Z,80.10
2023-04-26T14:14:58.665Z,80.00
2023-04-26T14:17:28.121Z,79.90
2023-04-26T14:19:55.582Z,79.90
2023-04-26T14:22:22.569Z,79.80
2023-04-26T14:24:49.518Z,79.70
2023-04-26T14:27:16.467Z,79.60
2023-04-26T14:29:43.453Z,79.60
2023-04-26T14:32:10.798Z,79.40
2023-04-26T14:34:39.364Z,79.60
2023-04-26T14:37:09.698Z,79.50
2023-04-26T14:39:37.920Z,79.40
2023-04-26T14:42:05.376Z,79.30
2023-04-26T14:44:32.550Z,79.10
2023-04-26T14:47:14.435Z,78.90
2023-04-26T14:49:41.817Z,78.80
2023-04-26T14:52:08.801Z,78.90
2023-04-26T14:54:39.392Z,78.90
2023-04-26T14:57:06.601Z,79.00
2023-04-26T14:59:33.785Z,79.00
2023-04-26T15:02:00.832Z,79.20
2023-04-26T15:04:28.094Z,79.30
2023-04-26T15:06:55.890Z,79.50
2023-04-26T15:09:23.065Z,79.50
2023-04-26T15:11:50.143Z,79.40
2023-04-26T15:14:17.146Z,79.30
2023-04-26T15:16:49.502Z,79.20
2023-04-26T15:19:20.919Z,79.20
2023-04-26T15:24:29.515Z,79.10
2023-04-26T15:26:57.580Z,79.20
2023-04-26T15:29:25.368Z,79.20
2023-04-26T15:31:53.772Z,79.30
2023-04-26T15:34:22.982Z,79.20
2023-04-26T15:36:50.072Z,79.30
2023-04-26T15:39:17.251Z,79.20
2023-04-26T15:41:45.523Z,78.90
2023-04-26T15:44:12.874Z,78.70
2023-04-26T15:46:59.501Z,78.60
